sensor_id;sensor_type;location;lat;lon;timestamp;P1;durP1;ratioP1;P2;durP2;ratioP2
7883;SDS011;3987;51.458;7.238;2022-09-03T00:00:40;1.30;;;1.20;;
7883;SDS011;3987;51.458;7.238;2022-09-03T00:06:30;1.47;;;1.17;;
7883;SDS011;3987;51.458;7.238;2022-09-03T00:08:47;1.80;;;1.60;;
7883;SDS011;3987;51.458;7.238;2022-09-03T00:16:42;1.40;;;1.40;;
7883;SDS011;3987;51.458;7.238;2022-09-03T00:19:10;1.80;;;1.50;;
7883;SDS011;3987;51.458;7.238;2022-09-03T00:21:43;2.33;;;1.27;;
7883;SDS011;3987;51.458;7.238;2022-09-03T00:24:12;1.10;;;1.07;;
7883;SDS011;3987;51.458;7.238;2022-09-03T00:26:39;1.23;;;1.23;;
7883;SDS011;3987;51.458;7.238;2022-09-03T00:29:18;1.53;;;1.13;;
7883;SDS011;3987;51.458;7.238;2022-09-03T00:32:06;1.43;;;1.10;;
7883;SDS011;3987;51.458;7.238;2022-09-03T00:34:38;1.67;;;1.37;;
7883;SDS011;3987;51.458;7.238;2022-09-03T00:37:08;1.40;;;1.40;;
7883;SDS011;3987;51.458;7.238;2022-09-03T00:39:35;1.67;;;1.30;;
7883;SDS011;3987;51.458;7.238;2022-09-03T00:45:13;1.67;;;1.30;;
7883;SDS011;3987;51.458;7.238;2022-09-03T00:47:47;1.20;;;1.20;;
7883;SDS011;3987;51.458;7.238;2022-09-03T00:52:57;1.33;;;1.10;;
7883;SDS011;3987;51.458;7.238;2022-09-03T00:55:58;1.40;;;1.37;;
7883;SDS011;3987;51.458;7.238;2022-09-03T00:58:45;1.37;;;1.10;;
7883;SDS011;3987;51.458;7.238;2022-09-03T01:01:18;3.13;;;1.53;;
7883;SDS011;3987;51.458;7.238;2022-09-03T01:03:58;0.93;;;0.93;;
7883;SDS011;3987;51.458;7.238;2022-09-03T01:06:49;0.90;;;0.90;;
7883;SDS011;3987;51.458;7.238;2022-09-03T01:09:31;1.30;;;1.30;;
7883;SDS011;3987;51.458;7.238;2022-09-03T01:12:16;1.43;;;1.30;;
7883;SDS011;3987;51.458;7.238;2022-09-03T01:14:53;1.27;;;1.10;;
7883;SDS011;3987;51.458;7.238;2022-09-03T01:17:44;1.10;;;1.10;;
7883;SDS011;3987;51.458;7.238;2022-09-03T01:23:13;1.00;;;0.97;;
7883;SDS011;3987;51.458;7.238;2022-09-03T01:26:26;0.90;;;0.90;;
7883;SDS011;3987;51.458;7.238;2022-09-03T01:28:56;1.17;;;0.90;;
7883;SDS011;3987;51.458;7.238;2022-09-03T01:31:44;0.90;;;0.90;;
7883;SDS011;3987;51.458;7.238;2022-09-03T01:34:18;1.20;;;1.20;;
7883;SDS011;3987;51.458;7.238;2022-09-03T01:37:28;0.90;;;0.90;;
7883;SDS011;3987;51.458;7.238;2022-09-03T01:42:47;9.43;;;1.40;;
7883;SDS011;3987;51.458;7.238;2022-09-03T01:48:41;2.90;;;1.23;;
7883;SDS011;3987;51.458;7.238;2022-09-03T01:54:08;1.93;;;1.27;;
7883;SDS011;3987;51.458;7.238;2022-09-03T01:59:40;1.07;;;1.07;;
7883;SDS011;3987;51.458;7.238;2022-09-03T02:02:12;1.20;;;1.20;;
7883;SDS011;3987;51.458;7.238;2022-09-03T02:04:55;1.10;;;1.10;;
7883;SDS011;3987;51.458;7.238;2022-09-03T02:07:25;1.30;;;1.30;;
7883;SDS011;3987;51.458;7.238;2022-09-03T02:09:57;1.33;;;0.93;;
7883;SDS011;3987;51.458;7.238;2022-09-03T02:12:24;1.00;;;1.00;;
7883;SDS011;3987;51.458;7.238;2022-09-03T02:14:50;1.20;;;1.10;;
7883;SDS011;3987;51.458;7.238;2022-09-03T02:17:15;1.40;;;1.03;;
7883;SDS011;3987;51.458;7.238;2022-09-03T02:19:40;1.20;;;1.20;;
7883;SDS011;3987;51.458;7.238;2022-09-03T02:22:06;1.00;;;1.00;;
7883;SDS011;3987;51.458;7.238;2022-09-03T02:24:31;0.80;;;0.80;;
7883;SDS011;3987;51.458;7.238;2022-09-03T02:26:57;1.17;;;1.10;;
7883;SDS011;3987;51.458;7.238;2022-09-03T02:29:22;0.93;;;0.90;;
7883;SDS011;3987;51.458;7.238;2022-09-03T02:31:48;1.00;;;1.00;;
7883;SDS011;3987;51.458;7.238;2022-09-03T02:34:13;0.83;;;0.73;;
7883;SDS011;3987;51.458;7.238;2022-09-03T02:36:40;1.30;;;0.80;;
7883;SDS011;3987;51.458;7.238;2022-09-03T02:39:09;0.77;;;0.77;;
7883;SDS011;3987;51.458;7.238;2022-09-03T02:41:35;0.67;;;0.67;;
7883;SDS011;3987;51.458;7.238;2022-09-03T02:44:02;1.17;;;0.73;;
7883;SDS011;3987;51.458;7.238;2022-09-03T02:46:49;0.80;;;0.80;;
7883;SDS011;3987;51.458;7.238;2022-09-03T02:49:17;0.93;;;0.93;;
7883;SDS011;3987;51.458;7.238;2022-09-03T02:51:43;1.07;;;0.87;;
7883;SDS011;3987;51.458;7.238;2022-09-03T02:54:09;1.00;;;1.00;;
7883;SDS011;3987;51.458;7.238;2022-09-03T02:56:35;1.00;;;1.00;;
7883;SDS011;3987;51.458;7.238;2022-09-03T02:59:02;1.13;;;1.10;;
7883;SDS011;3987;51.458;7.238;2022-09-03T03:01:27;1.60;;;1.23;;
7883;SDS011;3987;51.458;7.238;2022-09-03T03:03:53;1.23;;;1.00;;
7883;SDS011;3987;51.458;7.238;2022-09-03T03:06:18;0.80;;;0.80;;
7883;SDS011;3987;51.458;7.238;2022-09-03T03:08:45;2.33;;;0.93;;
7883;SDS011;3987;51.458;7.238;2022-09-03T03:11:11;2.57;;;1.10;;
7883;SDS011;3987;51.458;7.238;2022-09-03T03:13:36;1.33;;;1.20;;
7883;SDS011;3987;51.458;7.238;2022-09-03T03:16:04;3.23;;;1.20;;
7883;SDS011;3987;51.458;7.238;2022-09-03T03:18:33;1.33;;;0.97;;
7883;SDS011;3987;51.458;7.238;2022-09-03T03:21:05;2.93;;;1.30;;
7883;SDS011;3987;51.458;7.238;2022-09-03T03:23:33;1.20;;;1.10;;
7883;SDS011;3987;51.458;7.238;2022-09-03T03:26:05;1.20;;;1.20;;
7883;SDS011;3987;51.458;7.238;2022-09-03T03:28:32;2.67;;;1.67;;
7883;SDS011;3987;51.458;7.238;2022-09-03T03:31:03;1.90;;;1.23;;
7883;SDS011;3987;51.458;7.238;2022-09-03T03:33:30;1.40;;;1.30;;
7883;SDS011;3987;51.458;7.238;2022-09-03T03:35:55;1.27;;;1.27;;
7883;SDS011;3987;51.458;7.238;2022-09-03T03:38:20;1.67;;;1.30;;
7883;SDS011;3987;51.458;7.238;2022-09-03T03:40:46;2.00;;;1.30;;
7883;SDS011;3987;51.458;7.238;2022-09-03T03:43:11;2.57;;;1.40;;
7883;SDS011;3987;51.458;7.238;2022-09-03T03:45:37;3.60;;;1.60;;
7883;SDS011;3987;51.458;7.238;2022-09-03T03:48:02;1.30;;;1.30;;
7883;SDS011;3987;51.458;7.238;2022-09-03T03:50:27;1.20;;;0.97;;
7883;SDS011;3987;51.458;7.238;2022-09-03T03:52:53;1.57;;;1.43;;
7883;SDS011;3987;51.458;7.238;2022-09-03T03:55:18;1.33;;;1.33;;
7883;SDS011;3987;51.458;7.238;2022-09-03T03:57:44;1.37;;;1.27;;
7883;SDS011;3987;51.458;7.238;2022-09-03T04:00:11;2.83;;;1.57;;
7883;SDS011;3987;51.458;7.238;2022-09-03T04:02:39;1.30;;;1.30;;
7883;SDS011;3987;51.458;7.238;2022-09-03T04:05:05;4.57;;;1.30;;
7883;SDS011;3987;51.458;7.238;2022-09-03T04:07:30;1.80;;;1.50;;
7883;SDS011;3987;51.458;7.238;2022-09-03T04:09:56;1.57;;;1.57;;
7883;SDS011;3987;51.458;7.238;2022-09-03T04:12:21;1.30;;;1.30;;
7883;SDS011;3987;51.458;7.238;2022-09-03T04:14:46;1.10;;;1.10;;
7883;SDS011;3987;51.458;7.238;2022-09-03T04:17:12;1.10;;;1.10;;
7883;SDS011;3987;51.458;7.238;2022-09-03T04:19:39;1.20;;;1.20;;
7883;SDS011;3987;51.458;7.238;2022-09-03T04:22:04;1.80;;;1.70;;
7883;SDS011;3987;51.458;7.238;2022-09-03T04:24:29;1.67;;;1.57;;
7883;SDS011;3987;51.458;7.238;2022-09-03T04:26:55;1.50;;;1.50;;
7883;SDS011;3987;51.458;7.238;2022-09-03T04:29:21;1.63;;;1.40;;
7883;SDS011;3987;51.458;7.238;2022-09-03T04:31:46;1.37;;;1.20;;
7883;SDS011;3987;51.458;7.238;2022-09-03T04:34:31;1.67;;;1.67;;
7883;SDS011;3987;51.458;7.238;2022-09-03T04:36:56;1.97;;;1.50;;
7883;SDS011;3987;51.458;7.238;2022-09-03T04:39:24;1.37;;;1.23;;
7883;SDS011;3987;51.458;7.238;2022-09-03T04:41:50;1.27;;;1.23;;
7883;SDS011;3987;51.458;7.238;2022-09-03T04:44:15;1.47;;;1.47;;
7883;SDS011;3987;51.458;7.238;2022-09-03T04:46:41;1.33;;;1.30;;
7883;SDS011;3987;51.458;7.238;2022-09-03T04:49:06;1.63;;;1.63;;
7883;SDS011;3987;51.458;7.238;2022-09-03T04:51:33;2.80;;;1.37;;
7883;SDS011;3987;51.458;7.238;2022-09-03T04:54:00;2.73;;;1.67;;
7883;SDS011;3987;51.458;7.238;2022-09-03T04:56:27;1.17;;;1.17;;
7883;SDS011;3987;51.458;7.238;2022-09-03T04:58:57;1.70;;;1.70;;
7883;SDS011;3987;51.458;7.238;2022-09-03T05:01:24;2.20;;;1.53;;
7883;SDS011;3987;51.458;7.238;2022-09-03T05:03:51;1.70;;;1.60;;
7883;SDS011;3987;51.458;7.238;2022-09-03T05:06:18;1.20;;;1.20;;
7883;SDS011;3987;51.458;7.238;2022-09-03T05:08:46;1.73;;;1.70;;
7883;SDS011;3987;51.458;7.238;2022-09-03T05:11:13;1.30;;;1.30;;
7883;SDS011;3987;51.458;7.238;2022-09-03T05:13:38;1.57;;;1.57;;
7883;SDS011;3987;51.458;7.238;2022-09-03T05:16:05;4.40;;;1.50;;
7883;SDS011;3987;51.458;7.238;2022-09-03T05:18:31;1.60;;;1.50;;
7883;SDS011;3987;51.458;7.238;2022-09-03T05:20:57;3.83;;;1.80;;
7883;SDS011;3987;51.458;7.238;2022-09-03T05:23:24;1.50;;;1.50;;
7883;SDS011;3987;51.458;7.238;2022-09-03T05:25:56;2.70;;;2.10;;
7883;SDS011;3987;51.458;7.238;2022-09-03T05:28:22;1.90;;;1.50;;
7883;SDS011;3987;51.458;7.238;2022-09-03T05:31:04;1.43;;;1.43;;
7883;SDS011;3987;51.458;7.238;2022-09-03T05:33:34;1.77;;;1.73;;
7883;SDS011;3987;51.458;7.238;2022-09-03T05:36:04;1.70;;;1.70;;
7883;SDS011;3987;51.458;7.238;2022-09-03T05:38:31;1.40;;;1.40;;
7883;SDS011;3987;51.458;7.238;2022-09-03T05:40:57;1.60;;;1.50;;
7883;SDS011;3987;51.458;7.238;2022-09-03T05:43:24;1.50;;;1.50;;
7883;SDS011;3987;51.458;7.238;2022-09-03T05:45:50;1.50;;;1.40;;
7883;SDS011;3987;51.458;7.238;2022-09-03T05:48:15;2.33;;;1.60;;
7883;SDS011;3987;51.458;7.238;2022-09-03T05:50:41;2.83;;;1.30;;
7883;SDS011;3987;51.458;7.238;2022-09-03T05:53:06;1.50;;;1.40;;
7883;SDS011;3987;51.458;7.238;2022-09-03T05:55:32;1.57;;;1.47;;
7883;SDS011;3987;51.458;7.238;2022-09-03T05:57:58;1.83;;;1.73;;
7883;SDS011;3987;51.458;7.238;2022-09-03T06:00:23;1.80;;;1.80;;
7883;SDS011;3987;51.458;7.238;2022-09-03T06:02:49;1.67;;;1.60;;
7883;SDS011;3987;51.458;7.238;2022-09-03T06:05:17;2.90;;;1.30;;
7883;SDS011;3987;51.458;7.238;2022-09-03T06:07:43;1.57;;;1.57;;
7883;SDS011;3987;51.458;7.238;2022-09-03T06:10:12;2.10;;;1.40;;
7883;SDS011;3987;51.458;7.238;2022-09-03T06:12:41;1.47;;;1.37;;
7883;SDS011;3987;51.458;7.238;2022-09-03T06:15:14;1.60;;;1.53;;
7883;SDS011;3987;51.458;7.238;2022-09-03T06:17:40;1.80;;;1.60;;
7883;SDS011;3987;51.458;7.238;2022-09-03T06:20:06;2.00;;;1.43;;
7883;SDS011;3987;51.458;7.238;2022-09-03T06:22:31;1.97;;;1.87;;
7883;SDS011;3987;51.458;7.238;2022-09-03T06:24:57;1.57;;;1.40;;
7883;SDS011;3987;51.458;7.238;2022-09-03T06:27:22;1.30;;;1.30;;
7883;SDS011;3987;51.458;7.238;2022-09-03T06:29:48;1.43;;;1.40;;
7883;SDS011;3987;51.458;7.238;2022-09-03T06:32:13;1.33;;;1.27;;
7883;SDS011;3987;51.458;7.238;2022-09-03T06:34:39;1.33;;;1.33;;
7883;SDS011;3987;51.458;7.238;2022-09-03T06:37:04;1.40;;;1.30;;
7883;SDS011;3987;51.458;7.238;2022-09-03T06:39:30;1.30;;;1.30;;
7883;SDS011;3987;51.458;7.238;2022-09-03T06:41:55;1.00;;;1.00;;
7883;SDS011;3987;51.458;7.238;2022-09-03T06:44:32;1.30;;;1.30;;
7883;SDS011;3987;51.458;7.238;2022-09-03T06:46:57;1.60;;;1.30;;
7883;SDS011;3987;51.458;7.238;2022-09-03T06:49:25;1.23;;;1.17;;
7883;SDS011;3987;51.458;7.238;2022-09-03T06:51:50;5.03;;;1.13;;
7883;SDS011;3987;51.458;7.238;2022-09-03T06:54:16;3.70;;;0.97;;
7883;SDS011;3987;51.458;7.238;2022-09-03T06:56:41;1.73;;;0.93;;
7883;SDS011;3987;51.458;7.238;2022-09-03T06:59:10;1.30;;;1.20;;
7883;SDS011;3987;51.458;7.238;2022-09-03T07:01:37;1.27;;;0.90;;
7883;SDS011;3987;51.458;7.238;2022-09-03T07:04:04;1.00;;;1.00;;
7883;SDS011;3987;51.458;7.238;2022-09-03T07:06:32;0.70;;;0.70;;
7883;SDS011;3987;51.458;7.238;2022-09-03T07:09:01;2.00;;;0.80;;
7883;SDS011;3987;51.458;7.238;2022-09-03T07:11:27;1.50;;;0.93;;
7883;SDS011;3987;51.458;7.238;2022-09-03T07:13:55;1.40;;;0.83;;
7883;SDS011;3987;51.458;7.238;2022-09-03T07:16:22;1.17;;;0.90;;
7883;SDS011;3987;51.458;7.238;2022-09-03T07:18:49;0.90;;;0.90;;
7883;SDS011;3987;51.458;7.238;2022-09-03T07:21:17;0.73;;;0.73;;
7883;SDS011;3987;51.458;7.238;2022-09-03T07:23:43;0.97;;;0.97;;
7883;SDS011;3987;51.458;7.238;2022-09-03T07:26:10;0.70;;;0.70;;
7883;SDS011;3987;51.458;7.238;2022-09-03T07:28:44;1.10;;;0.77;;
7883;SDS011;3987;51.458;7.238;2022-09-03T07:31:16;0.73;;;0.73;;
7883;SDS011;3987;51.458;7.238;2022-09-03T07:33:44;1.27;;;0.90;;
7883;SDS011;3987;51.458;7.238;2022-09-03T07:36:13;3.20;;;0.83;;
7883;SDS011;3987;51.458;7.238;2022-09-03T07:38:40;5.40;;;0.77;;
7883;SDS011;3987;51.458;7.238;2022-09-03T07:41:07;0.97;;;0.97;;
7883;SDS011;3987;51.458;7.238;2022-09-03T07:43:34;2.47;;;0.60;;
7883;SDS011;3987;51.458;7.238;2022-09-03T07:46:01;1.47;;;0.80;;
7883;SDS011;3987;51.458;7.238;2022-09-03T07:48:26;0.80;;;0.80;;
7883;SDS011;3987;51.458;7.238;2022-09-03T07:50:52;1.13;;;0.90;;
7883;SDS011;3987;51.458;7.238;2022-09-03T07:53:23;0.50;;;0.50;;
7883;SDS011;3987;51.458;7.238;2022-09-03T07:55:49;0.73;;;0.70;;
7883;SDS011;3987;51.458;7.238;2022-09-03T07:58:15;0.70;;;0.70;;
7883;SDS011;3987;51.458;7.238;2022-09-03T08:00:41;0.87;;;0.87;;
7883;SDS011;3987;51.458;7.238;2022-09-03T08:03:07;1.87;;;0.80;;
7883;SDS011;3987;51.458;7.238;2022-09-03T08:05:33;1.07;;;0.70;;
7883;SDS011;3987;51.458;7.238;2022-09-03T08:08:01;0.60;;;0.60;;
7883;SDS011;3987;51.458;7.238;2022-09-03T08:10:27;1.13;;;0.70;;
7883;SDS011;3987;51.458;7.238;2022-09-03T08:12:55;1.17;;;0.50;;
7883;SDS011;3987;51.458;7.238;2022-09-03T08:15:22;0.60;;;0.60;;
7883;SDS011;3987;51.458;7.238;2022-09-03T08:17:47;0.43;;;0.43;;
7883;SDS011;3987;51.458;7.238;2022-09-03T08:20:13;0.73;;;0.57;;
7883;SDS011;3987;51.458;7.238;2022-09-03T08:22:39;0.50;;;0.50;;
7883;SDS011;3987;51.458;7.238;2022-09-03T08:25:05;0.60;;;0.60;;
7883;SDS011;3987;51.458;7.238;2022-09-03T08:27:31;2.97;;;0.57;;
7883;SDS011;3987;51.458;7.238;2022-09-03T08:29:57;2.20;;;0.80;;
7883;SDS011;3987;51.458;7.238;2022-09-03T08:32:22;0.67;;;0.67;;
7883;SDS011;3987;51.458;7.238;2022-09-03T08:34:47;0.70;;;0.70;;
7883;SDS011;3987;51.458;7.238;2022-09-03T08:37:14;0.77;;;0.67;;
7883;SDS011;3987;51.458;7.238;2022-09-03T08:39:40;0.63;;;0.63;;
7883;SDS011;3987;51.458;7.238;2022-09-03T08:42:51;3.10;;;0.73;;
7883;SDS011;3987;51.458;7.238;2022-09-03T08:45:05;1.97;;;0.70;;
7883;SDS011;3987;51.458;7.238;2022-09-03T08:47:32;0.70;;;0.70;;
7883;SDS011;3987;51.458;7.238;2022-09-03T08:50:21;1.03;;;1.00;;
7883;SDS011;3987;51.458;7.238;2022-09-03T08:52:54;0.90;;;0.90;;
7883;SDS011;3987;51.458;7.238;2022-09-03T08:55:33;1.43;;;0.70;;
7883;SDS011;3987;51.458;7.238;2022-09-03T09:00:47;0.60;;;0.60;;
7883;SDS011;3987;51.458;7.238;2022-09-03T09:03:26;2.53;;;0.70;;
7883;SDS011;3987;51.458;7.238;2022-09-03T09:09:09;0.47;;;0.47;;
7883;SDS011;3987;51.458;7.238;2022-09-03T09:12:09;1.20;;;0.50;;
7883;SDS011;3987;51.458;7.238;2022-09-03T09:17:29;4.30;;;0.50;;
7883;SDS011;3987;51.458;7.238;2022-09-03T09:20:04;1.07;;;0.53;;
7883;SDS011;3987;51.458;7.238;2022-09-03T09:23:00;0.60;;;0.60;;
7883;SDS011;3987;51.458;7.238;2022-09-03T09:25:28;0.40;;;0.37;;
7883;SDS011;3987;51.458;7.238;2022-09-03T09:28:03;0.50;;;0.50;;
7883;SDS011;3987;51.458;7.238;2022-09-03T09:30:34;0.70;;;0.70;;
7883;SDS011;3987;51.458;7.238;2022-09-03T09:33:01;0.50;;;0.50;;
7883;SDS011;3987;51.458;7.238;2022-09-03T09:35:26;0.60;;;0.60;;
7883;SDS011;3987;51.458;7.238;2022-09-03T09:37:52;1.23;;;0.60;;
7883;SDS011;3987;51.458;7.238;2022-09-03T09:43:04;1.40;;;0.63;;
7883;SDS011;3987;51.458;7.238;2022-09-03T09:45:41;2.33;;;0.60;;
7883;SDS011;3987;51.458;7.238;2022-09-03T09:48:19;2.50;;;0.90;;
7883;SDS011;3987;51.458;7.238;2022-09-03T09:50:46;0.60;;;0.60;;
7883;SDS011;3987;51.458;7.238;2022-09-03T09:53:12;0.60;;;0.60;;
7883;SDS011;3987;51.458;7.238;2022-09-03T09:55:52;0.70;;;0.70;;
7883;SDS011;3987;51.458;7.238;2022-09-03T09:58:19;1.10;;;0.73;;
7883;SDS011;3987;51.458;7.238;2022-09-03T10:00:57;1.50;;;0.70;;
7883;SDS011;3987;51.458;7.238;2022-09-03T10:03:24;4.07;;;0.70;;
7883;SDS011;3987;51.458;7.238;2022-09-03T10:06:00;0.77;;;0.77;;
7883;SDS011;3987;51.458;7.238;2022-09-03T10:08:47;1.97;;;0.60;;
7883;SDS011;3987;51.458;7.238;2022-09-03T10:11:13;2.30;;;0.70;;
7883;SDS011;3987;51.458;7.238;2022-09-03T10:13:40;2.00;;;0.60;;
7883;SDS011;3987;51.458;7.238;2022-09-03T10:16:10;2.60;;;0.70;;
7883;SDS011;3987;51.458;7.238;2022-09-03T10:19:03;0.67;;;0.67;;
7883;SDS011;3987;51.458;7.238;2022-09-03T10:21:33;0.67;;;0.67;;
7883;SDS011;3987;51.458;7.238;2022-09-03T10:27:07;0.67;;;0.67;;
7883;SDS011;3987;51.458;7.238;2022-09-03T10:29:34;0.70;;;0.70;;
7883;SDS011;3987;51.458;7.238;2022-09-03T10:37:47;1.73;;;0.87;;
7883;SDS011;3987;51.458;7.238;2022-09-03T10:40:24;0.80;;;0.80;;
7883;SDS011;3987;51.458;7.238;2022-09-03T10:46:15;2.60;;;0.97;;
7883;SDS011;3987;51.458;7.238;2022-09-03T10:52:00;1.03;;;0.63;;
7883;SDS011;3987;51.458;7.238;2022-09-03T10:57:17;1.03;;;0.70;;
7883;SDS011;3987;51.458;7.238;2022-09-03T11:00:00;1.83;;;0.70;;
7883;SDS011;3987;51.458;7.238;2022-09-03T11:05:07;0.80;;;0.80;;
7883;SDS011;3987;51.458;7.238;2022-09-03T11:10:32;0.90;;;0.90;;
7883;SDS011;3987;51.458;7.238;2022-09-03T11:15:28;1.83;;;1.00;;
7883;SDS011;3987;51.458;7.238;2022-09-03T11:18:08;0.90;;;0.90;;
7883;SDS011;3987;51.458;7.238;2022-09-03T11:20:37;0.90;;;0.90;;
7883;SDS011;3987;51.458;7.238;2022-09-03T11:23:03;1.23;;;1.00;;
7883;SDS011;3987;51.458;7.238;2022-09-03T11:25:31;1.80;;;0.80;;
7883;SDS011;3987;51.458;7.238;2022-09-03T11:33:24;1.07;;;0.70;;
7883;SDS011;3987;51.458;7.238;2022-09-03T11:35:55;21.80;;;2.03;;
7883;SDS011;3987;51.458;7.238;2022-09-03T11:38:22;0.60;;;0.60;;
7883;SDS011;3987;51.458;7.238;2022-09-03T11:41:03;2.83;;;1.10;;
7883;SDS011;3987;51.458;7.238;2022-09-03T11:43:40;1.03;;;0.50;;
7883;SDS011;3987;51.458;7.238;2022-09-03T11:48:54;0.80;;;0.80;;
7883;SDS011;3987;51.458;7.238;2022-09-03T11:51:34;5.63;;;1.13;;
7883;SDS011;3987;51.458;7.238;2022-09-03T11:54:03;0.77;;;0.77;;
7883;SDS011;3987;51.458;7.238;2022-09-03T11:56:30;2.00;;;0.60;;
7883;SDS011;3987;51.458;7.238;2022-09-03T12:01:39;1.45;;;0.60;;
7883;SDS011;3987;51.458;7.238;2022-09-03T12:10:24;0.50;;;0.50;;
7883;SDS011;3987;51.458;7.238;2022-09-03T12:13:01;3.87;;;0.67;;
7883;SDS011;3987;51.458;7.238;2022-09-03T12:15:59;0.60;;;0.60;;
7883;SDS011;3987;51.458;7.238;2022-09-03T12:18:30;1.27;;;0.70;;
7883;SDS011;3987;51.458;7.238;2022-09-03T12:23:25;0.73;;;0.73;;
7883;SDS011;3987;51.458;7.238;2022-09-03T12:26:02;1.67;;;0.77;;
7883;SDS011;3987;51.458;7.238;2022-09-03T12:28:30;0.83;;;0.83;;
7883;SDS011;3987;51.458;7.238;2022-09-03T12:33:45;0.80;;;0.80;;
7883;SDS011;3987;51.458;7.238;2022-09-03T12:36:12;1.27;;;0.80;;
7883;SDS011;3987;51.458;7.238;2022-09-03T12:38:37;1.50;;;0.70;;
7883;SDS011;3987;51.458;7.238;2022-09-03T12:41:03;0.82;;;0.82;;
7883;SDS011;3987;51.458;7.238;2022-09-03T12:43:29;0.80;;;0.80;;
7883;SDS011;3987;51.458;7.238;2022-09-03T12:45:54;1.23;;;0.77;;
7883;SDS011;3987;51.458;7.238;2022-09-03T12:48:20;0.80;;;0.80;;
7883;SDS011;3987;51.458;7.238;2022-09-03T12:50:47;1.23;;;0.90;;
7883;SDS011;3987;51.458;7.238;2022-09-03T12:53:14;2.73;;;1.00;;
7883;SDS011;3987;51.458;7.238;2022-09-03T12:55:46;0.90;;;0.90;;
7883;SDS011;3987;51.458;7.238;2022-09-03T12:58:18;0.97;;;0.80;;
7883;SDS011;3987;51.458;7.238;2022-09-03T13:00:55;1.90;;;0.97;;
7883;SDS011;3987;51.458;7.238;2022-09-03T13:05:53;1.70;;;1.00;;
7883;SDS011;3987;51.458;7.238;2022-09-03T13:08:25;0.83;;;0.83;;
7883;SDS011;3987;51.458;7.238;2022-09-03T13:10:54;1.00;;;1.00;;
7883;SDS011;3987;51.458;7.238;2022-09-03T13:13:25;0.83;;;0.83;;
7883;SDS011;3987;51.458;7.238;2022-09-03T13:18:53;0.90;;;0.90;;
7883;SDS011;3987;51.458;7.238;2022-09-03T13:21:54;1.13;;;1.13;;
7883;SDS011;3987;51.458;7.238;2022-09-03T13:35:22;1.03;;;0.97;;
7883;SDS011;3987;51.458;7.238;2022-09-03T13:37:54;1.00;;;1.00;;
7883;SDS011;3987;51.458;7.238;2022-09-03T13:49:12;1.20;;;1.10;;
7883;SDS011;3987;51.458;7.238;2022-09-03T13:52:41;0.87;;;0.87;;
7883;SDS011;3987;51.458;7.238;2022-09-03T13:55:32;1.13;;;1.13;;
7883;SDS011;3987;51.458;7.238;2022-09-03T14:01:12;0.80;;;0.80;;
7883;SDS011;3987;51.458;7.238;2022-09-03T14:03:45;1.23;;;1.13;;
7883;SDS011;3987;51.458;7.238;2022-09-03T14:14:33;1.07;;;1.07;;
7883;SDS011;3987;51.458;7.238;2022-09-03T14:19:53;1.37;;;1.00;;
7883;SDS011;3987;51.458;7.238;2022-09-03T14:22:22;1.67;;;1.20;;
7883;SDS011;3987;51.458;7.238;2022-09-03T14:24:51;2.40;;;1.53;;
7883;SDS011;3987;51.458;7.238;2022-09-03T14:27:23;1.50;;;1.50;;
7883;SDS011;3987;51.458;7.238;2022-09-03T14:29:57;1.30;;;1.30;;
7883;SDS011;3987;51.458;7.238;2022-09-03T14:35:24;1.00;;;1.00;;
7883;SDS011;3987;51.458;7.238;2022-09-03T14:40:43;1.83;;;1.17;;
7883;SDS011;3987;51.458;7.238;2022-09-03T14:43:15;3.30;;;1.33;;
7883;SDS011;3987;51.458;7.238;2022-09-03T14:46:17;1.20;;;1.20;;
7883;SDS011;3987;51.458;7.238;2022-09-03T14:57:17;1.70;;;1.60;;
7883;SDS011;3987;51.458;7.238;2022-09-03T15:07:54;1.10;;;1.10;;
7883;SDS011;3987;51.458;7.238;2022-09-03T15:13:15;1.53;;;1.40;;
7883;SDS011;3987;51.458;7.238;2022-09-03T15:37:20;1.30;;;1.17;;
7883;SDS011;3987;51.458;7.238;2022-09-03T15:39:56;1.20;;;1.20;;
7883;SDS011;3987;51.458;7.238;2022-09-03T15:42:26;1.53;;;1.43;;
7883;SDS011;3987;51.458;7.238;2022-09-03T15:44:53;1.20;;;1.20;;
7883;SDS011;3987;51.458;7.238;2022-09-03T15:50:14;1.73;;;1.63;;
7883;SDS011;3987;51.458;7.238;2022-09-03T15:53:14;1.43;;;1.40;;
7883;SDS011;3987;51.458;7.238;2022-09-03T15:56:37;1.33;;;1.30;;
7883;SDS011;3987;51.458;7.238;2022-09-03T15:59:02;1.13;;;1.13;;
7883;SDS011;3987;51.458;7.238;2022-09-03T16:15:14;1.40;;;1.40;;
7883;SDS011;3987;51.458;7.238;2022-09-03T16:17:53;1.10;;;1.10;;
7883;SDS011;3987;51.458;7.238;2022-09-03T16:20:43;1.10;;;1.10;;
7883;SDS011;3987;51.458;7.238;2022-09-03T16:23:14;1.17;;;1.17;;
7883;SDS011;3987;51.458;7.238;2022-09-03T16:25:55;1.60;;;1.50;;
7883;SDS011;3987;51.458;7.238;2022-09-03T16:28:28;1.20;;;1.20;;
7883;SDS011;3987;51.458;7.238;2022-09-03T16:31:10;1.13;;;1.10;;
7883;SDS011;3987;51.458;7.238;2022-09-03T16:33:47;1.57;;;1.20;;
7883;SDS011;3987;51.458;7.238;2022-09-03T16:41:49;1.03;;;1.03;;
7883;SDS011;3987;51.458;7.238;2022-09-03T16:50:14;1.30;;;1.30;;
7883;SDS011;3987;51.458;7.238;2022-09-03T16:53:00;1.17;;;1.17;;
7883;SDS011;3987;51.458;7.238;2022-09-03T17:00:48;1.53;;;0.90;;
7883;SDS011;3987;51.458;7.238;2022-09-03T17:09:30;1.10;;;1.10;;
7883;SDS011;3987;51.458;7.238;2022-09-03T17:15:03;1.33;;;1.30;;
7883;SDS011;3987;51.458;7.238;2022-09-03T17:20:17;1.10;;;1.10;;
7883;SDS011;3987;51.458;7.238;2022-09-03T17:25:35;1.10;;;1.10;;
7883;SDS011;3987;51.458;7.238;2022-09-03T17:36:27;1.27;;;1.00;;
7883;SDS011;3987;51.458;7.238;2022-09-03T17:44:32;1.20;;;1.20;;
7883;SDS011;3987;51.458;7.238;2022-09-03T17:47:29;1.30;;;1.27;;
7883;SDS011;3987;51.458;7.238;2022-09-03T17:55:23;1.30;;;1.30;;
7883;SDS011;3987;51.458;7.238;2022-09-03T17:58:07;1.30;;;1.20;;
7883;SDS011;3987;51.458;7.238;2022-09-03T18:00:43;1.00;;;1.00;;
7883;SDS011;3987;51.458;7.238;2022-09-03T18:03:26;1.57;;;1.40;;
7883;SDS011;3987;51.458;7.238;2022-09-03T18:05:57;2.83;;;1.30;;
7883;SDS011;3987;51.458;7.238;2022-09-03T18:08:29;1.30;;;1.30;;
7883;SDS011;3987;51.458;7.238;2022-09-03T18:16:46;1.17;;;0.97;;
7883;SDS011;3987;51.458;7.238;2022-09-03T18:21:58;1.27;;;1.27;;
7883;SDS011;3987;51.458;7.238;2022-09-03T18:24:45;1.23;;;1.13;;
7883;SDS011;3987;51.458;7.238;2022-09-03T18:30:26;1.50;;;1.40;;
7883;SDS011;3987;51.458;7.238;2022-09-03T18:33:10;1.17;;;1.17;;
7883;SDS011;3987;51.458;7.238;2022-09-03T18:35:55;1.37;;;1.37;;
7883;SDS011;3987;51.458;7.238;2022-09-03T18:38:41;2.30;;;1.10;;
7883;SDS011;3987;51.458;7.238;2022-09-03T18:47:26;1.07;;;1.07;;
7883;SDS011;3987;51.458;7.238;2022-09-03T18:50:20;1.30;;;1.30;;
7883;SDS011;3987;51.458;7.238;2022-09-03T18:53:12;1.40;;;1.37;;
7883;SDS011;3987;51.458;7.238;2022-09-03T18:59:02;1.63;;;1.60;;
7883;SDS011;3987;51.458;7.238;2022-09-03T19:02:06;1.60;;;1.60;;
7883;SDS011;3987;51.458;7.238;2022-09-03T19:07:54;1.50;;;1.30;;
7883;SDS011;3987;51.458;7.238;2022-09-03T19:10:47;1.73;;;1.73;;
7883;SDS011;3987;51.458;7.238;2022-09-03T19:13:34;1.53;;;1.53;;
7883;SDS011;3987;51.458;7.238;2022-09-03T19:16:22;1.50;;;1.50;;
7883;SDS011;3987;51.458;7.238;2022-09-03T19:22:40;1.40;;;1.30;;
7883;SDS011;3987;51.458;7.238;2022-09-03T19:25:26;1.20;;;1.20;;
7883;SDS011;3987;51.458;7.238;2022-09-03T19:28:18;1.03;;;1.03;;
7883;SDS011;3987;51.458;7.238;2022-09-03T19:37:25;0.80;;;0.80;;
7883;SDS011;3987;51.458;7.238;2022-09-03T19:43:19;0.90;;;0.90;;
7883;SDS011;3987;51.458;7.238;2022-09-03T19:50:00;1.10;;;1.10;;
7883;SDS011;3987;51.458;7.238;2022-09-03T19:55:35;1.00;;;1.00;;
7883;SDS011;3987;51.458;7.238;2022-09-03T19:58:23;1.73;;;1.47;;
7883;SDS011;3987;51.458;7.238;2022-09-03T20:01:08;1.10;;;1.10;;
7883;SDS011;3987;51.458;7.238;2022-09-03T20:03:53;1.43;;;1.43;;
7883;SDS011;3987;51.458;7.238;2022-09-03T20:06:38;1.33;;;1.33;;
7883;SDS011;3987;51.458;7.238;2022-09-03T20:09:24;1.30;;;1.10;;
7883;SDS011;3987;51.458;7.238;2022-09-03T20:12:11;1.30;;;1.20;;
7883;SDS011;3987;51.458;7.238;2022-09-03T20:14:37;1.43;;;1.40;;
7883;SDS011;3987;51.458;7.238;2022-09-03T20:17:13;1.33;;;1.33;;
7883;SDS011;3987;51.458;7.238;2022-09-03T20:30:17;1.63;;;1.63;;
7883;SDS011;3987;51.458;7.238;2022-09-03T20:33:03;1.27;;;1.27;;
7883;SDS011;3987;51.458;7.238;2022-09-03T20:35:41;1.33;;;1.33;;
7883;SDS011;3987;51.458;7.238;2022-09-03T20:44:14;1.30;;;1.30;;
7883;SDS011;3987;51.458;7.238;2022-09-03T20:47:49;1.30;;;1.30;;
7883;SDS011;3987;51.458;7.238;2022-09-03T20:55:53;1.30;;;1.30;;